Time;durP1;ratioP1;P1;durP2;ratioP2;P2;SDS_P1;SDS_P2;PMS_P1;PMS_P2;Temp;Humidity;BMP_temperature;BMP_pressure;BME280_temperature;BME280_humidity;BME280_pressure;Samples;Min_cycle;Max_cycle;Signal;HPM_P1;HPM_P2
2021/10/20 00:00:52;;;;;;;9.65;6.07;;;9.00;56.30;;;;;;4993741;28;20458;-55
2021/10/20 00:03:18;;;;;;;9.75;6.50;;;9.00;56.50;;;;;;4993531;28;20094;-55
2021/10/20 00:05:43;;;;;;;8.95;6.07;;;9.00;56.50;;;;;;4993325;28;20478;-55
2021/10/20 00:08:09;;;;;;;9.80;6.05;;;9.00;56.50;;;;;;4993874;28;20030;-54
2021/10/20 00:10:36;;;;;;;8.30;5.57;;;9.00;56.50;;;;;;4996282;28;20117;-55
2021/10/20 00:13:02;;;;;;;10.77;5.93;;;8.90;56.30;;;;;;4988990;28;20121;-58
2021/10/20 00:15:28;;;;;;;7.30;5.57;;;8.90;56.30;;;;;;4996986;28;20018;-54
2021/10/20 00:17:54;;;;;;;9.02;6.10;;;8.90;56.30;;;;;;4997219;28;20439;-55
2021/10/20 00:20:23;;;;;;;10.82;6.50;;;8.90;56.30;;;;;;4996800;28;20022;-51
2021/10/20 00:22:50;;;;;;;9.07;5.95;;;8.90;56.40;;;;;;4994186;28;20407;-52
2021/10/20 00:25:16;;;;;;;9.48;6.40;;;8.90;56.30;;;;;;4995843;28;20449;-54
2021/10/20 00:27:44;;;;;;;10.88;6.60;;;8.90;56.40;;;;;;4990063;28;20042;-52
2021/10/20 00:30:10;;;;;;;9.70;6.68;;;8.90;57.00;;;;;;4996318;28;20034;-56
2021/10/20 00:32:36;;;;;;;9.77;6.90;;;8.90;56.40;;;;;;4995600;28;20034;-54
2021/10/20 00:35:03;;;;;;;11.90;7.43;;;8.90;56.40;;;;;;4986319;28;20042;-54
2021/10/20 00:37:29;;;;;;;11.05;7.25;;;8.80;56.40;;;;;;4992250;28;20820;-56
2021/10/20 00:39:54;;;;;;;12.40;8.00;;;8.80;56.40;;;;;;4993574;28;20086;-58
2021/10/20 00:42:23;;;;;;;12.65;8.27;;;8.80;56.50;;;;;;4991667;28;20019;-57
2021/10/20 00:44:51;;;;;;;12.20;7.70;;;8.80;56.50;;;;;;4995268;28;20356;-58
2021/10/20 00:47:17;;;;;;;12.15;8.55;;;8.80;56.50;;;;;;4994143;28;20050;-57
2021/10/20 00:49:43;;;;;;;12.93;8.60;;;8.80;56.60;;;;;;4996728;28;20033;-57
2021/10/20 00:52:10;;;;;;;13.95;9.43;;;8.70;56.60;;;;;;4996047;28;20037;-57
2021/10/20 00:54:37;;;;;;;12.43;8.57;;;8.70;56.60;;;;;;4996027;28;20045;-56
2021/10/20 00:57:04;;;;;;;13.38;8.95;;;8.70;56.60;;;;;;4996321;28;20102;-55
2021/10/20 00:59:31;;;;;;;12.90;9.13;;;8.70;56.70;;;;;;4996031;28;20490;-54
2021/10/20 01:01:57;;;;;;;13.50;9.07;;;8.70;56.70;;;;;;4992456;28;20487;-54
2021/10/20 01:04:22;;;;;;;14.68;9.35;;;8.60;56.80;;;;;;4988798;28;20037;-54
2021/10/20 01:06:48;;;;;;;14.35;9.10;;;8.60;56.90;;;;;;4986743;28;20022;-54
2021/10/20 01:09:14;;;;;;;17.10;10.65;;;8.60;57.00;;;;;;4985796;28;20034;-54
2021/10/20 01:11:39;;;;;;;16.60;10.30;;;8.60;56.90;;;;;;4989341;28;20129;-54
2021/10/20 01:14:05;;;;;;;16.77;10.60;;;8.60;56.70;;;;;;4990993;28;20108;-58
2021/10/20 01:16:31;;;;;;;15.63;11.43;;;8.60;56.50;;;;;;4996076;28;20081;-56
2021/10/20 01:18:57;;;;;;;15.98;10.93;;;8.50;56.40;;;;;;4994212;28;20029;-57
2021/10/20 01:21:23;;;;;;;16.63;11.00;;;8.50;56.30;;;;;;4996066;28;20045;-58
2021/10/20 01:23:49;;;;;;;18.13;12.05;;;8.50;56.20;;;;;;4996066;28;20027;-54
2021/10/20 01:26:16;;;;;;;20.02;12.48;;;8.40;56.10;;;;;;4996123;28;20061;-55
2021/10/20 01:28:42;;;;;;;14.50;10.23;;;8.30;56.10;;;;;;4988377;28;20362;-56
2021/10/20 01:31:09;;;;;;;13.38;10.25;;;8.30;56.00;;;;;;4994308;28;20450;-54
2021/10/20 01:33:34;;;;;;;14.95;10.00;;;8.20;56.10;;;;;;4986878;28;20069;-54
2021/10/20 01:36:00;;;;;;;15.02;10.05;;;8.00;56.00;;;;;;4989806;28;20030;-54
2021/10/20 01:38:26;;;;;;;13.45;9.13;;;8.00;56.00;;;;;;4985558;28;20083;-54
2021/10/20 01:41:32;;;;;;;12.18;8.38;;;7.90;56.00;;;;;;2294539;28;23199;-55
2021/10/20 05:39:58;;;;;;;22.02;13.98;;;8.00;58.10;;;;;;4975490;28;20073;-54
2021/10/20 05:42:24;;;;;;;23.23;15.20;;;8.10;58.10;;;;;;4976490;28;20034;-53
2021/10/20 05:44:49;;;;;;;21.00;14.85;;;8.20;58.00;;;;;;4978084;28;20109;-55
2021/10/20 05:47:15;;;;;;;22.52;15.52;;;8.20;57.90;;;;;;4980132;28;20049;-55
2021/10/20 05:49:41;;;;;;;24.23;16.33;;;8.30;57.70;;;;;;4981412;28;20141;-54
2021/10/20 05:52:07;;;;;;;28.38;17.52;;;8.30;57.50;;;;;;4972681;28;20041;-53
2021/10/20 05:54:33;;;;;;;34.25;20.52;;;8.40;57.40;;;;;;4978866;28;20040;-54
2021/10/20 05:56:58;;;;;;;26.65;18.77;;;8.50;57.50;;;;;;4963082;28;20034;-55
2021/10/20 05:59:24;;;;;;;27.85;19.08;;;8.50;57.40;;;;;;4964660;28;20030;-55
2021/10/20 06:01:51;;;;;;;27.73;18.52;;;8.60;57.30;;;;;;4965559;28;20823;-55
2021/10/20 06:04:20;;;;;;;27.40;18.88;;;8.60;57.20;;;;;;4977303;28;20089;-53
2021/10/20 06:06:48;;;;;;;24.73;17.42;;;8.70;57.20;;;;;;4976917;28;20084;-54
2021/10/20 06:09:13;;;;;;;27.77;18.27;;;8.80;57.10;;;;;;4978398;28;20034;-53
2021/10/20 06:11:39;;;;;;;29.20;18.27;;;8.90;57.00;;;;;;4977966;28;20521;-55
2021/10/20 06:14:05;;;;;;;21.42;15.75;;;8.90;56.80;;;;;;4975829;28;20038;-55
2021/10/20 06:16:36;;;;;;;24.95;15.57;;;9.00;56.90;;;;;;4975902;28;20037;-56
2021/10/20 06:19:05;;;;;;;26.80;14.70;;;9.00;56.70;;;;;;4974868;28;20427;-52
2021/10/20 06:21:31;;;;;;;22.17;13.07;;;9.20;56.80;;;;;;4974568;28;20540;-51
2021/10/20 06:23:58;;;;;;;21.63;14.07;;;9.20;56.50;;;;;;4971913;28;20034;-55
2021/10/20 06:26:23;;;;;;;20.17;14.00;;;9.30;56.50;;;;;;4974836;28;20034;-54
2021/10/20 06:28:49;;;;;;;20.15;14.07;;;9.30;56.10;;;;;;4975934;28;20422;-53
2021/10/20 06:31:15;;;;;;;21.92;14.43;;;9.30;56.00;;;;;;4974717;28;20050;-54
2021/10/20 06:33:42;;;;;;;25.52;16.20;;;9.40;56.00;;;;;;4966028;28;20042;-54
2021/10/20 06:36:22;;;;;;;22.33;15.32;;;9.40;56.00;;;;;;4966745;28;20538;-54
2021/10/20 06:38:48;;;;;;;23.65;14.32;;;9.50;56.00;;;;;;4970975;28;20058;-55
2021/10/20 06:41:14;;;;;;;23.90;15.38;;;9.50;56.10;;;;;;4964590;28;20505;-55
2021/10/20 06:43:39;;;;;;;19.15;13.73;;;9.60;56.10;;;;;;4966322;28;20030;-55
2021/10/20 06:46:07;;;;;;;21.77;15.10;;;9.60;56.20;;;;;;4972542;28;20034;-55
2021/10/20 06:48:32;;;;;;;25.70;13.75;;;9.70;56.30;;;;;;4962986;28;20035;-55
2021/10/20 06:50:58;;;;;;;20.25;13.23;;;9.70;56.20;;;;;;4968851;28;20060;-55
2021/10/20 06:53:24;;;;;;;20.05;12.18;;;9.80;56.40;;;;;;4959436;28;20062;-56
2021/10/20 06:55:49;;;;;;;21.38;11.77;;;9.90;56.50;;;;;;4961924;28;20066;-55
2021/10/20 06:58:15;;;;;;;18.60;12.73;;;10.10;56.50;;;;;;4964373;28;20065;-55
2021/10/20 07:00:41;;;;;;;17.55;11.18;;;10.20;56.40;;;;;;4969498;28;20034;-55
2021/10/20 07:03:07;;;;;;;13.32;9.02;;;10.30;56.20;;;;;;4973378;28;20038;-55
2021/10/20 07:05:32;;;;;;;14.68;8.77;;;10.40;56.10;;;;;;4965246;28;20560;-54
2021/10/20 07:07:58;;;;;;;10.73;7.70;;;10.40;55.90;;;;;;4965474;28;20087;-56
2021/10/20 07:10:24;;;;;;;11.68;7.03;;;10.50;55.70;;;;;;4964767;28;20077;-53
2021/10/20 07:12:50;;;;;;;12.98;7.45;;;10.50;55.60;;;;;;4965662;28;20050;-54
2021/10/20 07:15:16;;;;;;;12.10;6.95;;;10.60;56.30;;;;;;4959365;28;20038;-54
2021/10/20 07:17:43;;;;;;;12.65;6.47;;;10.60;55.60;;;;;;4961461;28;20040;-54
2021/10/20 07:20:10;;;;;;;11.55;7.00;;;10.70;55.50;;;;;;4958592;28;20038;-55
2021/10/20 07:22:38;;;;;;;9.80;6.47;;;10.80;55.60;;;;;;4961561;28;20045;-53
2021/10/20 07:25:09;;;;;;;10.65;7.18;;;10.80;56.20;;;;;;4967314;28;20884;-55
2021/10/20 07:27:35;;;;;;;8.68;5.90;;;10.80;55.50;;;;;;4962682;28;20045;-55
2021/10/20 07:30:02;;;;;;;10.07;7.28;;;10.90;55.50;;;;;;4964400;28;20034;-54
2021/10/20 07:32:28;;;;;;;12.93;7.75;;;10.90;55.60;;;;;;4962741;28;20039;-53
2021/10/20 07:34:54;;;;;;;14.45;7.75;;;11.00;55.70;;;;;;4960872;28;20059;-59
2021/10/20 07:37:19;;;;;;;13.63;8.10;;;11.00;55.70;;;;;;4960647;28;20046;-56
2021/10/20 07:39:45;;;;;;;14.13;8.45;;;11.10;55.70;;;;;;4966725;28;20048;-55
2021/10/20 07:42:10;;;;;;;12.52;8.43;;;11.10;55.80;;;;;;4964115;28;20101;-54
2021/10/20 07:44:36;;;;;;;18.33;9.18;;;11.20;55.80;;;;;;4961547;28;20045;-55
2021/10/20 07:47:02;;;;;;;12.85;7.57;;;11.30;55.70;;;;;;4960253;28;20384;-56
2021/10/20 07:49:28;;;;;;;13.60;8.23;;;11.30;55.70;;;;;;4960836;28;20152;-56
2021/10/20 07:51:56;;;;;;;11.95;8.35;;;11.40;55.60;;;;;;4965585;28;20054;-57
2021/10/20 07:54:23;;;;;;;13.63;7.25;;;11.50;55.60;;;;;;4961514;28;20121;-60
2021/10/20 07:56:50;;;;;;;10.05;6.32;;;11.50;55.40;;;;;;4956165;28;24611;-56
2021/10/20 07:59:15;;;;;;;13.70;6.45;;;11.60;55.20;;;;;;4963568;28;20081;-56
2021/10/20 08:01:41;;;;;;;14.57;8.10;;;11.60;54.90;;;;;;4957163;28;20031;-55
2021/10/20 08:04:07;;;;;;;26.30;11.82;;;11.70;54.90;;;;;;4959880;28;20149;-56
2021/10/20 08:06:32;;;;;;;25.95;13.45;;;11.80;54.60;;;;;;4970194;28;20088;-54
2021/10/20 08:08:58;;;;;;;24.63;12.43;;;11.80;54.40;;;;;;4964601;28;20406;-56
2021/10/20 08:11:23;;;;;;;18.55;10.02;;;11.80;54.20;;;;;;4960604;28;20042;-56
2021/10/20 08:13:49;;;;;;;13.02;7.55;;;11.90;54.10;;;;;;4949255;28;20081;-56
2021/10/20 08:16:15;;;;;;;12.63;6.43;;;12.00;53.70;;;;;;4961758;28;20038;-55
2021/10/20 08:18:40;;;;;;;9.30;6.00;;;12.00;53.60;;;;;;4959020;28;20035;-55
2021/10/20 08:21:06;;;;;;;7.38;5.22;;;12.00;53.40;;;;;;4957879;28;20058;-56
2021/10/20 08:23:32;;;;;;;7.82;5.13;;;12.00;53.40;;;;;;4960540;28;20034;-56
2021/10/20 08:25:58;;;;;;;8.40;5.30;;;12.10;53.50;;;;;;4960659;28;20112;-55
2021/10/20 08:28:23;;;;;;;8.23;4.85;;;12.10;53.60;;;;;;4965137;28;20039;-54
2021/10/20 08:30:49;;;;;;;8.35;5.03;;;12.10;53.60;;;;;;4955628;28;20532;-56
2021/10/20 08:33:16;;;;;;;7.05;4.95;;;12.20;53.50;;;;;;4962715;28;20034;-53
2021/10/20 08:35:42;;;;;;;9.32;5.70;;;12.20;53.40;;;;;;4960797;28;20038;-56
2021/10/20 08:38:08;;;;;;;8.60;5.70;;;12.30;53.40;;;;;;4961471;28;20045;-55
2021/10/20 08:40:47;;;;;;;9.63;5.50;;;12.30;53.30;;;;;;4991871;28;20045;-56
2021/10/20 08:43:18;;;;;;;8.23;5.43;;;12.40;53.30;;;;;;4982509;28;20663;-56
2021/10/20 08:45:44;;;;;;;;;;;12.40;53.20;;;;;;4984203;28;20037;-55
2021/10/20 08:48:12;;;;;;;6.07;4.28;;;12.40;53.20;;;;;;4987330;28;19917;-55
2021/10/20 08:50:38;;;;;;;8.05;5.13;;;12.50;53.10;;;;;;4991916;28;20049;-55
2021/10/20 08:53:04;;;;;;;8.57;4.68;;;12.60;53.20;;;;;;4990244;28;20042;-56
2021/10/20 08:55:30;;;;;;;6.57;4.13;;;12.60;53.00;;;;;;4979508;28;20026;-55
2021/10/20 08:57:56;;;;;;;6.30;4.00;;;12.70;53.00;;;;;;4980036;28;20034;-56
2021/10/20 09:00:23;;;;;;;5.72;3.97;;;12.70;52.50;;;;;;4976156;28;20968;-54
2021/10/20 09:02:50;;;;;;;5.80;3.70;;;12.70;52.20;;;;;;4986311;28;20034;-56
2021/10/20 09:05:22;;;;;;;4.38;3.17;;;12.80;52.00;;;;;;4985835;28;20060;-55
2021/10/20 09:07:51;;;;;;;3.58;2.85;;;12.90;51.90;;;;;;4990169;28;20041;-55
2021/10/20 09:10:17;;;;;;;5.30;3.15;;;12.90;51.70;;;;;;4983863;28;20034;-56
2021/10/20 09:12:44;;;;;;;4.68;3.10;;;12.90;51.40;;;;;;4990097;28;20021;-54
2021/10/20 09:15:22;;;;;;;6.40;3.13;;;13.00;51.20;;;;;;4980040;28;20040;-55
2021/10/20 09:18:04;;;;;;;3.88;2.90;;;13.00;50.90;;;;;;4985350;28;20044;-54
2021/10/20 09:20:31;;;;;;;5.50;3.40;;;13.10;51.00;;;;;;4988742;28;20030;-55
2021/10/20 09:23:15;;;;;;;4.38;3.40;;;13.10;50.80;;;;;;4989342;28;20036;-52
2021/10/20 09:25:42;;;;;;;7.38;3.53;;;13.10;50.70;;;;;;4982570;28;20497;-52
2021/10/20 09:28:13;;;;;;;6.03;4.05;;;13.10;51.20;;;;;;4980243;28;20034;-55
2021/10/20 09:30:40;;;;;;;5.22;3.53;;;13.10;50.50;;;;;;4978489;28;20135;-55
2021/10/20 09:33:08;;;;;;;6.20;3.38;;;13.20;50.60;;;;;;4980387;28;20405;-55
2021/10/20 09:35:34;;;;;;;7.30;3.60;;;13.20;50.50;;;;;;4986863;28;20398;-55
2021/10/20 09:38:00;;;;;;;6.30;3.50;;;13.20;50.70;;;;;;4978141;28;20054;-55
2021/10/20 09:40:39;;;;;;;5.72;3.72;;;13.30;50.70;;;;;;4975397;28;20081;-55
2021/10/20 09:43:07;;;;;;;5.28;3.60;;;13.40;50.70;;;;;;4968562;28;20031;-55
2021/10/20 09:45:38;;;;;;;6.03;4.22;;;13.40;50.50;;;;;;4974862;28;20121;-54
2021/10/20 09:48:23;;;;;;;5.03;3.78;;;13.40;50.30;;;;;;4979290;28;20181;-54
2021/10/20 09:51:03;;;;;;;7.15;4.28;;;13.50;50.40;;;;;;4971557;28;20038;-55
2021/10/20 09:53:31;;;;;;;5.03;3.58;;;13.50;50.50;;;;;;4973980;28;20070;-55
2021/10/20 09:56:03;;;;;;;5.55;3.55;;;13.60;50.60;;;;;;4972586;28;20031;-53
2021/10/20 09:58:31;;;;;;;4.82;3.38;;;13.60;50.50;;;;;;4968606;28;20027;-53
2021/10/20 10:00:59;;;;;;;5.25;3.50;;;13.70;50.50;;;;;;4967002;28;20113;-56
2021/10/20 10:03:26;;;;;;;6.03;3.95;;;13.80;50.50;;;;;;4968011;28;20023;-55
2021/10/20 10:05:52;;;;;;;5.55;3.45;;;13.80;50.30;;;;;;4965186;28;20180;-55
2021/10/20 10:08:18;;;;;;;6.63;3.78;;;13.90;50.20;;;;;;4974950;28;20035;-55
2021/10/20 10:10:44;;;;;;;5.97;3.80;;;14.00;50.00;;;;;;4963379;28;20139;-56
2021/10/20 10:13:19;;;;;;;5.30;3.85;;;14.00;50.20;;;;;;4956194;28;20058;-56
2021/10/20 10:15:47;;;;;;;7.50;3.83;;;14.10;50.20;;;;;;4963915;28;20065;-56
2021/10/20 10:18:14;;;;;;;5.43;3.90;;;14.10;50.10;;;;;;4972505;28;20049;-56
2021/10/20 10:20:42;;;;;;;7.75;3.88;;;14.20;49.90;;;;;;4973291;28;20030;-55
2021/10/20 10:23:17;;;;;;;4.75;3.35;;;14.30;49.60;;;;;;4972812;28;20076;-56
2021/10/20 10:25:43;;;;;;;5.15;3.47;;;14.30;49.50;;;;;;4971390;28;20034;-56
2021/10/20 10:28:23;;;;;;;5.60;4.00;;;14.40;49.20;;;;;;4969556;28;20030;-56
2021/10/20 10:30:52;;;;;;;7.43;4.63;;;14.50;49.30;;;;;;4973244;28;20060;-55
2021/10/20 10:33:23;;;;;;;5.00;3.63;;;14.50;49.40;;;;;;4973286;28;20141;-56
2021/10/20 10:36:16;;;;;;;4.90;3.75;;;14.60;49.30;;;;;;4968070;28;20061;-55
2021/10/20 10:39:02;;;;;;;6.82;3.72;;;14.60;49.10;;;;;;4976548;28;20142;-55
2021/10/20 10:41:33;;;;;;;6.07;4.50;;;14.70;49.10;;;;;;4973118;28;20042;-56
2021/10/20 10:44:03;;;;;;;3.75;3.22;;;14.70;49.10;;;;;;4977554;28;20104;-53
2021/10/20 10:46:59;;;;;;;5.45;3.83;;;14.80;49.00;;;;;;4983687;28;20042;-55
2021/10/20 10:49:31;;;;;;;5.90;4.15;;;14.80;48.90;;;;;;4955013;28;20041;-56
2021/10/20 10:52:04;;;;;;;8.50;5.32;;;14.80;49.10;;;;;;4976599;28;20054;-55
2021/10/20 10:54:38;;;;;;;6.70;4.53;;;14.90;49.10;;;;;;4975771;28;20038;-55
2021/10/20 10:57:15;;;;;;;7.65;4.40;;;14.90;48.90;;;;;;4973470;28;20149;-55
2021/10/20 11:00:10;;;;;;;6.50;4.63;;;14.90;49.00;;;;;;4969068;28;20163;-56
2021/10/20 11:02:38;;;;;;;6.10;4.50;;;15.00;49.00;;;;;;4968641;28;20027;-55
2021/10/20 11:05:05;;;;;;;7.10;4.20;;;14.90;49.00;;;;;;4967370;28;20080;-55
2021/10/20 11:07:32;;;;;;;6.13;4.82;;;14.90;48.90;;;;;;4968508;28;20052;-55
2021/10/20 11:09:59;;;;;;;5.75;4.35;;;15.00;49.00;;;;;;4967900;28;20038;-56
2021/10/20 11:12:25;;;;;;;12.77;5.72;;;15.00;49.00;;;;;;4971008;28;20426;-56
2021/10/20 11:14:55;;;;;;;6.47;4.60;;;15.00;49.20;;;;;;4967543;28;20138;-56
2021/10/20 11:17:21;;;;;;;8.15;4.65;;;15.00;49.20;;;;;;4972549;28;20206;-54
2021/10/20 11:19:47;;;;;;;8.82;4.88;;;15.00;49.10;;;;;;4965795;28;20602;-54
2021/10/20 11:22:20;;;;;;;7.10;4.70;;;15.00;49.20;;;;;;4968023;28;20046;-55
2021/10/20 11:24:48;;;;;;;7.85;4.90;;;15.00;49.30;;;;;;4965542;28;20743;-57
2021/10/20 11:27:15;;;;;;;8.57;4.97;;;15.00;49.50;;;;;;4963706;28;20117;-56
2021/10/20 11:29:46;;;;;;;7.43;5.07;;;15.00;49.50;;;;;;4962649;28;20038;-56
2021/10/20 11:32:13;;;;;;;8.63;5.88;;;14.90;49.60;;;;;;4966044;28;20030;-56
2021/10/20 11:34:39;;;;;;;7.90;5.20;;;14.90;49.80;;;;;;4968099;28;20066;-57
2021/10/20 11:37:06;;;;;;;13.93;6.40;;;14.90;49.80;;;;;;4963302;28;20031;-57
2021/10/20 11:39:33;;;;;;;8.65;5.32;;;14.90;50.10;;;;;;4971075;28;20066;-57
2021/10/20 11:42:01;;;;;;;7.72;5.32;;;14.90;50.10;;;;;;4965299;28;22075;-58
2021/10/20 11:44:31;;;;;;;8.68;5.75;;;14.80;50.20;;;;;;4940333;28;20109;-58
2021/10/20 11:46:59;;;;;;;7.35;5.88;;;14.80;50.30;;;;;;4960504;28;20041;-56
2021/10/20 11:49:25;;;;;;;10.85;6.75;;;14.80;50.50;;;;;;4957313;28;20112;-57
2021/10/20 11:51:52;;;;;;;9.82;6.47;;;14.80;50.60;;;;;;4967011;28;20038;-57
2021/10/20 11:54:19;;;;;;;7.10;5.20;;;14.90;50.90;;;;;;4961931;28;20046;-56
2021/10/20 11:56:56;;;;;;;9.27;5.90;;;14.90;50.80;;;;;;4963823;28;20042;-57
2021/10/20 11:59:26;;;;;;;9.73;6.07;;;14.90;51.20;;;;;;4959872;28;20937;-57
2021/10/20 12:01:52;;;;;;;7.22;4.60;;;14.90;51.20;;;;;;4968550;28;20037;-55
2021/10/20 12:04:20;;;;;;;9.73;6.03;;;14.90;51.30;;;;;;4965624;28;20517;-57
2021/10/20 12:06:48;;;;;;;8.60;6.10;;;14.90;51.50;;;;;;4969160;28;20105;-57
2021/10/20 12:09:14;;;;;;;8.95;6.32;;;14.90;51.60;;;;;;4971478;28;20030;-57
2021/10/20 12:11:41;;;;;;;10.38;5.75;;;14.90;51.80;;;;;;4960904;28;20090;-56
2021/10/20 12:14:09;;;;;;;8.68;6.35;;;14.80;52.00;;;;;;4953857;28;20035;-57
2021/10/20 12:16:38;;;;;;;9.20;5.55;;;14.80;52.00;;;;;;4962586;28;20039;-57
2021/10/20 12:19:10;;;;;;;7.43;5.68;;;14.80;52.30;;;;;;4961293;28;20038;-57
2021/10/20 12:21:40;;;;;;;10.13;5.97;;;14.80;52.50;;;;;;4950072;28;20072;-57
2021/10/20 12:24:08;;;;;;;8.43;6.13;;;14.80;52.70;;;;;;4947400;28;20030;-57
2021/10/20 12:26:36;;;;;;;7.57;5.70;;;14.80;52.80;;;;;;4949573;28;20288;-57
2021/10/20 12:29:08;;;;;;;8.80;6.20;;;14.80;53.00;;;;;;4937204;28;20394;-56
2021/10/20 12:31:35;;;;;;;7.65;5.30;;;14.80;53.40;;;;;;4954118;28;20038;-56
2021/10/20 12:34:02;;;;;;;7.03;5.63;;;14.80;53.60;;;;;;4951447;28;20042;-56
2021/10/20 12:36:30;;;;;;;6.78;5.50;;;14.80;53.80;;;;;;4953057;28;20097;-54
2021/10/20 12:38:57;;;;;;;7.05;4.90;;;14.80;54.00;;;;;;4945592;28;20038;-57
2021/10/20 12:41:44;;;;;;;7.32;5.22;;;14.80;54.10;;;;;;4949429;28;20042;-56
2021/10/20 12:44:10;;;;;;;6.88;4.55;;;14.70;54.40;;;;;;4946949;28;20038;-54
2021/10/20 12:46:46;;;;;;;6.03;4.55;;;14.70;54.50;;;;;;4945573;28;22315;-56
2021/10/20 12:49:12;;;;;;;7.05;4.50;;;14.70;54.70;;;;;;4957378;28;20103;-55
2021/10/20 12:51:41;;;;;;;6.75;4.95;;;14.70;55.00;;;;;;4960258;28;20038;-55
2021/10/20 12:54:09;;;;;;;7.95;5.10;;;14.70;55.30;;;;;;4956143;28;20036;-55
2021/10/20 12:56:37;;;;;;;7.63;5.22;;;14.70;55.40;;;;;;4955141;28;20052;-56
2021/10/20 12:59:10;;;;;;;8.52;5.95;;;14.70;55.60;;;;;;4952819;28;20156;-55
2021/10/20 13:01:39;;;;;;;7.32;4.70;;;14.70;55.80;;;;;;4954614;28;20033;-56
2021/10/20 13:04:08;;;;;;;6.35;4.97;;;14.70;55.90;;;;;;4943528;28;20039;-57
2021/10/20 13:06:34;;;;;;;7.03;5.40;;;14.70;56.10;;;;;;4958283;28;23817;-57
2021/10/20 13:09:00;;;;;;;8.45;5.95;;;14.70;56.20;;;;;;4961061;28;20352;-58
2021/10/20 13:11:26;;;;;;;9.00;5.40;;;14.70;56.40;;;;;;4959062;28;20041;-57
2021/10/20 13:13:52;;;;;;;9.73;6.93;;;14.70;56.60;;;;;;4961871;28;20054;-55
2021/10/20 13:16:17;;;;;;;8.50;6.20;;;14.70;56.80;;;;;;4968171;28;20043;-57
2021/10/20 13:18:43;;;;;;;9.23;7.50;;;14.70;57.00;;;;;;4954548;28;20065;-56
2021/10/20 13:21:09;;;;;;;9.68;7.50;;;14.70;57.00;;;;;;4952822;28;22618;-57
2021/10/20 13:23:36;;;;;;;10.45;7.00;;;14.70;57.20;;;;;;4962452;28;20039;-57
2021/10/20 13:26:03;;;;;;;8.80;7.18;;;14.70;57.30;;;;;;4954955;28;20035;-58
2021/10/20 13:28:30;;;;;;;10.40;7.45;;;14.70;57.40;;;;;;4960572;28;20521;-57
2021/10/20 13:30:56;;;;;;;11.32;7.45;;;14.70;57.60;;;;;;4967351;28;20034;-57
2021/10/20 13:33:22;;;;;;;10.45;7.55;;;14.70;57.70;;;;;;4960757;28;20053;-54
2021/10/20 13:35:47;;;;;;;10.40;7.75;;;14.70;57.70;;;;;;4964298;28;20027;-55
2021/10/20 13:38:13;;;;;;;9.80;7.22;;;14.70;57.80;;;;;;4958650;28;20050;-55
2021/10/20 13:40:40;;;;;;;8.40;6.78;;;14.80;57.90;;;;;;4967619;28;20517;-57
2021/10/20 13:43:07;;;;;;;9.60;6.07;;;14.80;58.00;;;;;;4956544;28;20671;-57
2021/10/20 13:45:33;;;;;;;8.25;6.28;;;14.80;58.10;;;;;;4962360;28;20073;-56
2021/10/20 13:48:00;;;;;;;7.60;5.38;;;14.80;58.10;;;;;;4968168;28;20106;-58
2021/10/20 13:50:26;;;;;;;7.97;5.82;;;14.80;58.20;;;;;;4971888;28;20038;-56
2021/10/20 13:52:53;;;;;;;7.72;5.95;;;14.80;58.10;;;;;;4963345;28;20041;-57
2021/10/20 13:55:20;;;;;;;8.75;6.32;;;14.80;58.20;;;;;;4966332;28;20026;-57
2021/10/20 13:57:46;;;;;;;9.98;6.68;;;14.80;58.30;;;;;;4964985;28;20136;-57
2021/10/20 14:00:12;;;;;;;9.43;7.35;;;14.90;58.40;;;;;;4953448;28;20147;-57
2021/10/20 14:02:38;;;;;;;9.85;7.43;;;14.90;58.40;;;;;;4958552;28;20513;-57
2021/10/20 14:05:04;;;;;;;9.93;7.55;;;14.90;58.40;;;;;;4962641;28;20034;-55
2021/10/20 14:07:30;;;;;;;12.93;8.50;;;14.90;58.50;;;;;;4954778;28;20038;-56
2021/10/20 14:09:56;;;;;;;12.65;9.30;;;14.90;58.50;;;;;;4952279;28;20069;-57
2021/10/20 14:12:22;;;;;;;14.35;10.88;;;14.90;58.50;;;;;;4969535;28;20113;-54
2021/10/20 14:14:49;;;;;;;14.15;10.20;;;14.90;58.50;;;;;;4945358;28;20050;-56
2021/10/20 14:17:16;;;;;;;13.23;9.13;;;14.90;58.60;;;;;;4966986;28;20050;-56
2021/10/20 14:19:42;;;;;;;10.43;7.68;;;14.90;58.70;;;;;;4960270;28;20109;-56
2021/10/20 14:22:09;;;;;;;12.00;8.10;;;14.90;58.70;;;;;;4958888;28;20122;-57
2021/10/20 14:24:34;;;;;;;10.05;7.75;;;14.90;58.80;;;;;;4967998;28;20031;-56
2021/10/20 14:27:00;;;;;;;11.40;7.55;;;14.90;58.90;;;;;;4963092;28;20037;-57
2021/10/20 14:29:26;;;;;;;11.73;7.97;;;14.90;59.00;;;;;;4960555;28;20038;-56
2021/10/20 14:31:53;;;;;;;12.45;7.82;;;14.90;59.10;;;;;;4960879;28;20489;-57
2021/10/20 14:34:20;;;;;;;17.33;9.80;;;14.90;59.20;;;;;;4966756;28;20035;-56
2021/10/20 14:36:46;;;;;;;22.67;11.73;;;14.90;59.20;;;;;;4966905;28;20243;-57
2021/10/20 14:39:13;;;;;;;23.20;13.35;;;14.80;59.20;;;;;;4981900;28;21068;-57
2021/10/20 14:41:40;;;;;;;25.25;13.55;;;14.80;59.30;;;;;;4986421;28;22072;-54
2021/10/20 14:44:08;;;;;;;25.00;14.23;;;14.80;59.30;;;;;;4972488;28;20378;-56
2021/10/20 14:46:35;;;;;;;25.30;13.73;;;14.80;59.40;;;;;;4987184;28;20029;-56
2021/10/20 14:49:12;;;;;;;26.38;14.95;;;14.80;59.50;;;;;;4990981;28;20034;-55
2021/10/20 14:51:39;;;;;;;19.10;11.45;;;14.80;59.50;;;;;;4982651;28;20108;-57
2021/10/20 14:54:06;;;;;;;21.17;11.32;;;14.80;59.60;;;;;;4979478;28;20496;-56
2021/10/20 14:56:32;;;;;;;21.63;12.07;;;14.80;59.60;;;;;;4980633;28;20632;-56
2021/10/20 14:58:58;;;;;;;14.60;9.35;;;14.80;59.60;;;;;;4974596;28;20018;-57
2021/10/20 15:01:24;;;;;;;13.20;8.55;;;14.80;59.50;;;;;;4984278;28;20030;-57
2021/10/20 15:03:50;;;;;;;18.48;8.57;;;14.80;59.60;;;;;;4983855;28;20064;-57
2021/10/20 15:06:17;;;;;;;12.27;7.72;;;14.80;59.70;;;;;;4982913;28;20061;-56
2021/10/20 15:08:44;;;;;;;14.85;8.68;;;14.80;59.70;;;;;;4989500;28;20038;-57
2021/10/20 15:11:11;;;;;;;14.25;9.38;;;14.80;59.80;;;;;;4987768;28;20475;-58
2021/10/20 15:13:38;;;;;;;17.25;9.05;;;14.70;59.70;;;;;;4992169;28;20034;-56
2021/10/20 15:16:05;;;;;;;15.48;9.63;;;14.80;60.00;;;;;;4992028;28;20562;-57
2021/10/20 15:21:34;;;;;;;19.38;11.55;;;14.70;59.80;;;;;;4941055;28;20473;-56
2021/10/20 15:23:59;;;;;;;21.90;11.82;;;14.70;60.00;;;;;;4990481;28;20442;-57
2021/10/20 15:26:26;;;;;;;24.52;13.50;;;14.70;60.00;;;;;;4993001;28;20045;-57
2021/10/20 15:28:52;;;;;;;31.38;16.42;;;14.80;60.00;;;;;;4994245;28;20030;-57
2021/10/20 15:31:20;;;;;;;24.65;13.70;;;14.70;60.00;;;;;;4994090;28;20029;-57
2021/10/20 15:33:46;;;;;;;26.70;13.27;;;14.70;60.00;;;;;;4989291;28;20101;-57
2021/10/20 15:36:13;;;;;;;26.38;15.00;;;14.70;60.00;;;;;;4987124;28;20201;-56
2021/10/20 15:38:39;;;;;;;22.20;11.80;;;14.70;60.10;;;;;;4982954;28;20053;-57
2021/10/20 15:41:06;;;;;;;22.30;12.48;;;14.70;60.10;;;;;;4973406;28;20072;-55
2021/10/20 15:43:35;;;;;;;26.63;13.23;;;14.70;60.10;;;;;;4975939;28;20054;-57
2021/10/20 15:46:01;;;;;;;22.55;11.88;;;14.70;60.20;;;;;;4978623;28;20495;-57
2021/10/20 15:48:27;;;;;;;22.45;12.73;;;14.70;60.20;;;;;;4975039;28;20042;-57
2021/10/20 15:50:52;;;;;;;21.85;12.20;;;14.70;60.30;;;;;;4978498;28;20048;-55
2021/10/20 15:53:19;;;;;;;24.73;13.90;;;14.70;60.10;;;;;;4980370;28;20037;-56
2021/10/20 15:55:44;;;;;;;20.10;11.13;;;14.70;60.30;;;;;;4979724;28;20030;-56
2021/10/20 15:58:10;;;;;;;22.45;12.05;;;14.70;60.40;;;;;;4984547;28;20046;-56
2021/10/20 16:00:37;;;;;;;25.23;13.93;;;14.70;60.30;;;;;;4981125;28;20388;-54
2021/10/20 16:03:03;;;;;;;27.40;13.13;;;14.70;60.40;;;;;;4978040;28;20034;-56
2021/10/20 16:05:29;;;;;;;26.23;13.88;;;14.70;60.50;;;;;;4979816;28;20023;-56
2021/10/20 16:07:55;;;;;;;26.42;12.95;;;14.70;60.50;;;;;;4985689;28;20038;-56
2021/10/20 16:10:21;;;;;;;24.67;12.88;;;14.70;60.40;;;;;;4987499;28;20085;-54
2021/10/20 16:12:50;;;;;;;19.90;11.68;;;14.60;60.60;;;;;;4981406;28;20030;-57
2021/10/20 16:15:16;;;;;;;19.42;11.25;;;14.60;60.50;;;;;;4986952;28;20506;-53
2021/10/20 16:17:42;;;;;;;22.05;12.40;;;14.60;60.70;;;;;;4992252;28;20031;-53
2021/10/20 16:20:10;;;;;;;22.65;12.05;;;14.60;60.60;;;;;;4990774;28;20022;-53
2021/10/20 16:22:37;;;;;;;20.52;11.50;;;14.60;60.70;;;;;;4986817;28;20035;-55
2021/10/20 16:25:05;;;;;;;20.45;11.20;;;14.60;60.70;;;;;;4987119;28;20057;-54
2021/10/20 16:27:30;;;;;;;17.77;10.00;;;14.60;61.50;;;;;;4988894;28;20156;-53
2021/10/20 16:29:56;;;;;;;21.10;10.02;;;14.60;60.80;;;;;;4992979;28;20113;-56
2021/10/20 16:32:22;;;;;;;13.38;8.40;;;14.60;60.90;;;;;;4992862;28;20034;-53
2021/10/20 16:34:47;;;;;;;17.20;9.52;;;14.60;60.90;;;;;;4984556;28;20062;-54
2021/10/20 16:37:13;;;;;;;12.77;7.95;;;14.60;60.90;;;;;;4983353;28;20068;-53
2021/10/20 16:39:43;;;;;;;12.13;8.10;;;14.60;60.90;;;;;;4986033;28;20102;-56
2021/10/20 16:42:09;;;;;;;10.45;6.65;;;14.60;61.10;;;;;;4987056;28;20018;-55